Response — WDA9597 — position and weather

sailwx.info

Track history (hours):
 
Tides and Currents Weather Stations Pressure Air Temp Water Temp Dewpoint Dewpoint Depression Visibility Wind Speed Wind Dir Waves Ship Positions

Response

Owner: VESSEL MANAGEMENT SERVICES INC, SEATTLE, WA. More information available from US FCC via Universal Licensing System and Coast Guard Vessel Documentation Center.

Last reported at 2017-Nov-27 18:38 UTC. Time now 2017-Dec-11 04:23 UTC.
Position N 48°31' W 122°37'.
Warning: this ship's position is 13 days out of date.

Length 40 m; draft 6.1 m.

Type: Tug. MMSI: 366866930.

Date/timePositionNaut miles runAvg speedWind from/ knotsBaromVisibWave heightAir tempDewpointWater temp
2017-Nov-27 18:38N 48°31' W 122°37'0 0.2
2017-Nov-27 18:31N 48°31' W 122°37'0 0.3
2017-Nov-27 18:00N 48°31' W 122°37'0 0.0
2017-Nov-27 17:30N 48°31' W 122°37'0 0.0
2017-Nov-27 17:00N 48°31' W 122°37'0 0.0
2017-Nov-27 16:30N 48°31' W 122°37'0 0.0
2017-Nov-27 16:00N 48°31' W 122°37'0 0.0
2017-Nov-27 15:30N 48°31' W 122°37'0 0.0
2017-Nov-27 15:00N 48°31' W 122°37'0 0.0
2017-Nov-27 14:30N 48°31' W 122°37'0 0.0
2017-Nov-27 14:00N 48°31' W 122°37'0 0.0
2017-Nov-27 13:30N 48°31' W 122°37'0 0.0
2017-Nov-27 13:00N 48°31' W 122°37'0 0.0
2017-Nov-27 12:30N 48°31' W 122°37'0 0.0
2017-Nov-27 12:00N 48°31' W 122°37'0 0.0
2017-Nov-27 11:30N 48°31' W 122°37'0 0.0
2017-Nov-27 11:00N 48°31' W 122°37'0 0.0
2017-Nov-27 10:30N 48°31' W 122°37'0 0.0
2017-Nov-27 10:00N 48°31' W 122°37'0 0.0
2017-Nov-27 09:30N 48°31' W 122°37'0 0.0
2017-Nov-27 09:00N 48°31' W 122°37'0 0.0
2017-Nov-27 08:30N 48°31' W 122°37'0 0.0
2017-Nov-27 08:01N 48°31' W 122°37'0 0.0
2017-Nov-27 07:31N 48°31' W 122°37'0 0.0
2017-Nov-27 07:00N 48°31' W 122°37'0 0.0
2017-Nov-27 06:30N 48°31' W 122°37'0 0.0
2017-Nov-27 06:00N 48°31' W 122°37'0 0.0
2017-Nov-27 05:30N 48°31' W 122°37'0 0.0
2017-Nov-27 05:00N 48°31' W 122°37'0 0.0
2017-Nov-27 04:30N 48°31' W 122°37'0 0.0
2017-Nov-27 04:00N 48°31' W 122°37'0 0.0
2017-Nov-27 03:30N 48°31' W 122°37'0 0.0
2017-Nov-27 03:01N 48°31' W 122°37'0 0.0
2017-Nov-27 02:30N 48°31' W 122°37'0 0.0
2017-Nov-27 02:00N 48°31' W 122°37'0 0.0
2017-Nov-27 01:30N 48°31' W 122°37'1 2.8
2017-Nov-27 01:00N 48°31' W 122°39'4 7.9
2017-Nov-27 00:30N 48°35' W 122°40'4 8.3
2017-Nov-27 00:00N 48°39' W 122°40'4 8.8
2017-Nov-26 23:31N 48°43' W 122°44'4 8.6
2017-Nov-26 23:00N 48°47' W 122°44'3 1.7
2017-Nov-26 21:20N 48°50' W 122°46'5 0.5
2017-Nov-26 11:47N 48°45' W 122°43'0 0.0
2017-Nov-25 22:39N 48°45' W 122°43'1 8.1
2017-Nov-25 22:30N 48°46' W 122°44'5 3.3
2017-Nov-25 21:01N 48°51' W 122°45'0 2.0
2017-Nov-25 20:55N 48°51' W 122°45'4 6.1
2017-Nov-25 20:12N 48°47' W 122°46'311.8
2017-Nov-25 19:55N 48°43' W 122°44'511.6
2017-Nov-25 19:30N 48°39' W 122°44'611.4
2017-Nov-25 19:00N 48°33' W 122°45'611.8
2017-Nov-25 18:30N 48°27' W 122°45'4 8.6
2017-Nov-25 18:00N 48°24' W 122°49'1114.0
2017-Nov-25 17:13N 48°18' W 123°03'3 5.4
2017-Nov-25 16:45N 48°16' W 123°06'1 2.2
2017-Nov-25 16:30N 48°17' W 123°06'4 6.8
2017-Nov-25 15:52N 48°20' W 123°01'3 7.6
2017-Nov-25 15:30N 48°21' W 122°57'4 7.7
2017-Nov-25 15:01N 48°23' W 122°52'4 7.6
2017-Nov-25 14:29N 48°25' W 122°48'3 7.5
2017-Nov-25 14:01N 48°28' W 122°45'3 7.0
2017-Nov-25 13:31N 48°31' W 122°42'3 6.6
2017-Nov-25 13:00N 48°31' W 122°37'0 0.1
2017-Nov-25 12:31N 48°31' W 122°37'0 0.0
2017-Nov-25 12:01N 48°31' W 122°37'0 0.0
2017-Nov-25 11:31N 48°31' W 122°37'0 0.0
2017-Nov-25 11:00N 48°31' W 122°37'0 0.0
2017-Nov-25 10:30N 48°31' W 122°37'0 0.0
2017-Nov-25 10:01N 48°31' W 122°37'0 0.0
2017-Nov-25 09:30N 48°31' W 122°37'0 0.0
2017-Nov-25 09:00N 48°31' W 122°37'0 0.0
2017-Nov-25 08:31N 48°31' W 122°37'0 0.0
2017-Nov-25 08:01N 48°31' W 122°37'0 0.0
2017-Nov-25 07:31N 48°31' W 122°37'0 0.0
2017-Nov-25 07:00N 48°31' W 122°37'0 0.0
2017-Nov-25 06:31N 48°31' W 122°37'2 4.1
2017-Nov-25 06:00N 48°33' W 122°34'4 7.5
2017-Nov-25 05:30N 48°36' W 122°36'4 8.0
2017-Nov-25 05:00N 48°39' W 122°40'4 8.0
2017-Nov-25 04:30N 48°43' W 122°43'4 7.7
2017-Nov-25 04:00N 48°46' W 122°45'4 7.4
2017-Nov-25 03:31N 48°50' W 122°46'1 0.7
2017-Nov-25 02:11N 48°50' W 122°45'2 8.4
2017-Nov-25 01:59N 48°49' W 122°44'0 0.0
2017-Nov-24 16:41N 48°48' W 122°43'0 0.0
2017-Nov-24 08:38N 48°48' W 122°43'0 0.1
2017-Nov-24 08:20N 48°48' W 122°43'3 8.0
2017-Nov-24 08:01N 48°51' W 122°45'1 1.8
2017-Nov-24 07:20N 48°52' W 122°46'1 3.0
2017-Nov-24 06:59N 48°51' W 122°45'3 4.3
2017-Nov-24 06:13N 48°47' W 122°45'4 7.9
2017-Nov-24 05:45N 48°44' W 122°44'2 6.8
2017-Nov-24 05:30N 48°42' W 122°43'4 7.4
2017-Nov-24 05:01N 48°39' W 122°40'4 8.2
2017-Nov-24 04:30N 48°36' W 122°36'4 7.7
2017-Nov-24 04:00N 48°32' W 122°34'2 4.5
2017-Nov-24 03:30N 48°31' W 122°37'0 0.0
2017-Nov-24 03:00N 48°31' W 122°37'0 0.0
2017-Nov-24 02:30N 48°31' W 122°37'0 0.0
2017-Nov-24 02:00N 48°31' W 122°37'0 0.0
2017-Nov-24 01:30N 48°31' W 122°37'0 0.0
2017-Nov-24 01:01N 48°31' W 122°37'0 0.0
2017-Nov-24 00:31N 48°31' W 122°37'0 0.0
2017-Nov-24 00:01N 48°31' W 122°37'0 0.0
2017-Nov-23 23:31N 48°31' W 122°37'0 0.0
2017-Nov-23 23:01N 48°31' W 122°37'0 0.0
2017-Nov-23 22:30N 48°31' W 122°37'0 0.0
2017-Nov-23 22:00N 48°31' W 122°37'0 0.0
2017-Nov-23 21:31N 48°31' W 122°37'0 0.0
2017-Nov-23 21:00N 48°31' W 122°37'0 0.0
2017-Nov-23 20:31N 48°31' W 122°37'0 0.0
2017-Nov-23 20:01N 48°31' W 122°37'0 0.0
2017-Nov-23 19:31N 48°31' W 122°37'0 0.0
2017-Nov-23 19:00N 48°31' W 122°37'0 0.0
2017-Nov-23 18:30N 48°31' W 122°37'0 0.0
2017-Nov-23 18:00N 48°31' W 122°37'0 0.0
2017-Nov-23 17:30N 48°31' W 122°37'0 0.0
2017-Nov-23 17:00N 48°31' W 122°37'2 3.2
2017-Nov-23 16:31N 48°31' W 122°35'0 0.0
2017-Nov-23 16:01N 48°31' W 122°35'1 1.9
2017-Nov-23 15:30N 48°31' W 122°34'1 1.2
2017-Nov-23 15:00N 48°31' W 122°35'1 2.3
2017-Nov-23 14:31N 48°31' W 122°37'0 0.0
2017-Nov-23 14:00N 48°31' W 122°37'0 0.0
2017-Nov-23 13:30N 48°31' W 122°37'0 0.0
2017-Nov-23 13:00N 48°31' W 122°37'0 0.0
2017-Nov-23 12:31N 48°31' W 122°37'1 1.4
2017-Nov-23 12:00N 48°31' W 122°36'1 2.1
2017-Nov-23 11:31N 48°31' W 122°35'0 0.6
2017-Nov-23 11:00N 48°31' W 122°35'1 2.5
2017-Nov-23 10:30N 48°31' W 122°37'0 0.0
2017-Nov-23 10:00N 48°31' W 122°37'0 0.0
2017-Nov-23 09:31N 48°31' W 122°37'0 0.0
2017-Nov-23 09:01N 48°31' W 122°37'0 0.0
2017-Nov-23 08:30N 48°31' W 122°37'0 0.0
2017-Nov-23 08:00N 48°31' W 122°37'0 0.0
2017-Nov-23 07:31N 48°31' W 122°37'0 0.0
2017-Nov-23 07:00N 48°31' W 122°37'0 0.0
2017-Nov-23 06:30N 48°31' W 122°37'0 0.0
2017-Nov-23 06:00N 48°31' W 122°37'0 0.0
2017-Nov-23 05:30N 48°31' W 122°37'0 0.0
2017-Nov-23 05:01N 48°31' W 122°37'0 0.0
2017-Nov-23 04:30N 48°31' W 122°37'0 0.0
2017-Nov-23 04:00N 48°31' W 122°37'0 0.0
2017-Nov-23 03:30N 48°31' W 122°37'0 0.0
2017-Nov-23 03:00N 48°31' W 122°37'0 0.0
2017-Nov-23 02:30N 48°31' W 122°37'0 0.0
2017-Nov-23 02:00N 48°31' W 122°37'0 0.0
2017-Nov-23 01:31N 48°31' W 122°37'0 0.7
2017-Nov-23 01:00N 48°31' W 122°36'0 0.2
2017-Nov-23 00:30N 48°31' W 122°36'0 0.2
2017-Nov-23 00:00N 48°31' W 122°37'0 0.0
2017-Nov-22 23:30N 48°31' W 122°37'0 0.0
2017-Nov-22 23:00N 48°31' W 122°37'0 0.0
2017-Nov-22 22:31N 48°31' W 122°37'0 0.0
2017-Nov-22 22:00N 48°31' W 122°37'0 0.0
2017-Nov-22 21:31N 48°31' W 122°37'0 0.0
2017-Nov-22 21:01N 48°31' W 122°37'0 0.0
2017-Nov-22 20:31N 48°31' W 122°37'0 0.0
2017-Nov-22 20:00N 48°31' W 122°37'0 0.0
2017-Nov-22 19:30N 48°31' W 122°37'  
2017-Nov-20 00:31N 48°31' W 122°37'0 0.0
2017-Nov-20 00:01N 48°31' W 122°37'0 0.0
2017-Nov-19 23:30N 48°31' W 122°37'0 0.0
2017-Nov-19 23:01N 48°31' W 122°37'0 0.0
2017-Nov-19 22:30N 48°31' W 122°37'0 0.0
2017-Nov-19 22:00N 48°31' W 122°37'0 0.0
2017-Nov-19 21:30N 48°31' W 122°37'0 0.0
2017-Nov-19 21:01N 48°31' W 122°37'0 0.0
2017-Nov-19 20:31N 48°31' W 122°37'0 0.0
2017-Nov-19 20:00N 48°31' W 122°37'0 0.0
2017-Nov-19 19:30N 48°31' W 122°37'0 0.0
2017-Nov-19 19:01N 48°31' W 122°37'0 0.0
2017-Nov-19 18:31N 48°31' W 122°37'0 0.0
2017-Nov-19 18:00N 48°31' W 122°37'0 0.0
2017-Nov-19 17:30N 48°31' W 122°37'0 0.0
2017-Nov-19 17:00N 48°31' W 122°37'0 0.0
2017-Nov-19 16:30N 48°31' W 122°37'0 0.0
2017-Nov-19 16:00N 48°31' W 122°37'0 0.0
2017-Nov-19 15:30N 48°31' W 122°37'0 0.0
2017-Nov-19 15:00N 48°31' W 122°37'0 0.0
2017-Nov-19 14:30N 48°31' W 122°37'2 4.0
2017-Nov-19 14:00N 48°30' W 122°34'0 0.0
2017-Nov-19 13:30N 48°30' W 122°34'0 0.6
2017-Nov-19 13:00N 48°31' W 122°35'2 3.2
2017-Nov-19 12:30N 48°32' W 122°36'1 1.1
2017-Nov-19 12:01N 48°31' W 122°37'0 1.0
2017-Nov-19 11:31N 48°31' W 122°37'0 0.0
2017-Nov-19 11:00N 48°31' W 122°37'0 0.0
2017-Nov-19 10:31N 48°31' W 122°37'0 0.0
2017-Nov-19 10:00N 48°31' W 122°37'0 0.0
2017-Nov-19 09:31N 48°31' W 122°37'0 0.0
2017-Nov-19 09:00N 48°31' W 122°37'0 0.0
2017-Nov-19 08:30N 48°31' W 122°37'0 0.0
2017-Nov-19 08:01N 48°31' W 122°37'0 0.0
2017-Nov-19 07:30N 48°31' W 122°37'0 0.0
2017-Nov-19 07:01N 48°31' W 122°37'0 0.0
2017-Nov-19 06:30N 48°31' W 122°37'0 0.0
2017-Nov-19 06:01N 48°31' W 122°37'0 0.0
2017-Nov-19 05:31N 48°31' W 122°37'0 0.0
2017-Nov-19 05:01N 48°31' W 122°37'0 0.0
2017-Nov-19 04:30N 48°31' W 122°37'0 0.0
2017-Nov-19 04:00N 48°31' W 122°37'0 0.0
2017-Nov-19 03:31N 48°31' W 122°37'0 0.0
2017-Nov-19 03:00N 48°31' W 122°37'0 0.0
2017-Nov-19 02:31N 48°31' W 122°37'1 1.3
2017-Nov-19 02:00N 48°32' W 122°36'4 7.4
2017-Nov-19 01:30N 48°35' W 122°35'4 8.6
2017-Nov-19 01:00N 48°39' W 122°34'4 8.7
2017-Nov-19 00:31N 48°44' W 122°32'1 1.7
2017-Nov-19 00:00N 48°44' W 122°32'0 0.6
2017-Nov-18 23:31N 48°45' W 122°32'1 2.2
2017-Nov-18 23:00N 48°45' W 122°31'0 0.1
2017-Nov-18 22:30N 48°45' W 122°31'4 7.4
2017-Nov-18 22:00N 48°42' W 122°33'4 8.2
2017-Nov-18 21:31N 48°38' W 122°34'4 7.5
2017-Nov-18 21:01N 48°35' W 122°37'0 0.1
2017-Nov-18 20:30N 48°35' W 122°37'0 0.1
2017-Nov-18 20:00N 48°35' W 122°38'0 0.0
2017-Nov-18 19:30N 48°35' W 122°38'0 0.0
2017-Nov-18 19:00N 48°35' W 122°38'0 0.1
2017-Nov-18 18:30N 48°35' W 122°37'0 0.1
2017-Nov-18 18:00N 48°35' W 122°38'1 1.8
2017-Nov-18 17:30N 48°36' W 122°37'4 8.7
2017-Nov-18 17:00N 48°39' W 122°40'4 8.7
2017-Nov-18 16:31N 48°43' W 122°44'5 9.2
2017-Nov-18 16:00N 48°48' W 122°44'4 7.1
2017-Nov-18 15:27N 48°52' W 122°46'0 0.2
2017-Nov-18 14:52N 48°52' W 122°46'0 0.4
2017-Nov-18 14:10N 48°52' W 122°46'0 0.2
2017-Nov-18 14:00N 48°52' W 122°46'0 0.0
2017-Nov-18 13:30N 48°52' W 122°46'0 0.3
2017-Nov-18 13:00N 48°52' W 122°46'2 3.1
2017-Nov-18 12:25N 48°50' W 122°47'3 4.0
2017-Nov-18 11:48N 48°48' W 122°44'1 1.2
2017-Nov-18 11:23N 48°48' W 122°43'0 0.0
2017-Nov-18 10:58N 48°48' W 122°43'0 0.0
2017-Nov-18 10:27N 48°48' W 122°43'0 0.0
2017-Nov-18 09:58N 48°48' W 122°43'0 0.0
2017-Nov-18 09:24N 48°48' W 122°43'0 0.0
2017-Nov-18 08:55N 48°48' W 122°43'0 0.1
2017-Nov-18 08:31N 48°48' W 122°43'0 0.0
2017-Nov-18 08:00N 48°48' W 122°43'0 0.0
2017-Nov-18 06:45N 48°48' W 122°43'0 0.1
2017-Nov-18 06:25N 48°48' W 122°43'0 0.1
2017-Nov-18 06:00N 48°48' W 122°43'0 0.0
2017-Nov-18 05:31N 48°48' W 122°43'1 1.7
2017-Nov-18 05:01N 48°49' W 122°44'3 6.1
2017-Nov-18 04:28N 48°52' W 122°46'0 0.1
2017-Nov-18 03:45N 48°52' W 122°46'0 0.2
2017-Nov-18 03:15N 48°52' W 122°46'0 1.2
2017-Nov-18 02:59N 48°52' W 122°46'0 0.0
2017-Nov-18 02:17N 48°52' W 122°46'1 0.3
2017-Nov-18 00:25N 48°52' W 122°46'1 1.4
2017-Nov-18 00:00N 48°51' W 122°46'1 0.6
2017-Nov-17 22:11N 48°52' W 122°46'0 0.0
2017-Nov-17 21:33N 48°52' W 122°46'0 0.0
2017-Nov-17 19:36N 48°52' W 122°46'0 0.0
2017-Nov-17 19:30N 48°52' W 122°46'0 0.0
2017-Nov-17 18:48N 48°52' W 122°46'  
Track history (hours):
 
Tides and Currents Weather Stations Pressure Air Temp Water Temp Dewpoint Dewpoint Depression Visibility Wind Speed Wind Dir Waves Ship Positions

Response

Owner: VESSEL MANAGEMENT SERVICES INC, SEATTLE, WA. More information available from US FCC via Universal Licensing System and Coast Guard Vessel Documentation Center.

Last reported at 2017-Nov-27 18:38 UTC. Time now 2017-Dec-11 04:23 UTC.
Position N 48°31' W 122°37'.
Warning: this ship's position is 13 days out of date.

Length 40 m; draft 6.1 m.

Type: Tug. MMSI: 366866930.

Date/timePositionNaut miles runAvg speedWind from/ knotsBaromVisibWave heightAir tempDewpointWater temp
2017-Nov-27 18:38N 48°31' W 122°37'0 0.2
2017-Nov-27 18:31N 48°31' W 122°37'0 0.3
2017-Nov-27 18:00N 48°31' W 122°37'0 0.0
2017-Nov-27 17:30N 48°31' W 122°37'0 0.0
2017-Nov-27 17:00N 48°31' W 122°37'0 0.0
2017-Nov-27 16:30N 48°31' W 122°37'0 0.0
2017-Nov-27 16:00N 48°31' W 122°37'0 0.0
2017-Nov-27 15:30N 48°31' W 122°37'0 0.0
2017-Nov-27 15:00N 48°31' W 122°37'0 0.0
2017-Nov-27 14:30N 48°31' W 122°37'0 0.0
2017-Nov-27 14:00N 48°31' W 122°37'0 0.0
2017-Nov-27 13:30N 48°31' W 122°37'0 0.0
2017-Nov-27 13:00N 48°31' W 122°37'0 0.0
2017-Nov-27 12:30N 48°31' W 122°37'0 0.0
2017-Nov-27 12:00N 48°31' W 122°37'0 0.0
2017-Nov-27 11:30N 48°31' W 122°37'0 0.0
2017-Nov-27 11:00N 48°31' W 122°37'0 0.0
2017-Nov-27 10:30N 48°31' W 122°37'0 0.0
2017-Nov-27 10:00N 48°31' W 122°37'0 0.0
2017-Nov-27 09:30N 48°31' W 122°37'0 0.0
2017-Nov-27 09:00N 48°31' W 122°37'0 0.0
2017-Nov-27 08:30N 48°31' W 122°37'0 0.0
2017-Nov-27 08:01N 48°31' W 122°37'0 0.0
2017-Nov-27 07:31N 48°31' W 122°37'0 0.0
2017-Nov-27 07:00N 48°31' W 122°37'0 0.0
2017-Nov-27 06:30N 48°31' W 122°37'0 0.0
2017-Nov-27 06:00N 48°31' W 122°37'0 0.0
2017-Nov-27 05:30N 48°31' W 122°37'0 0.0
2017-Nov-27 05:00N 48°31' W 122°37'0 0.0
2017-Nov-27 04:30N 48°31' W 122°37'0 0.0
2017-Nov-27 04:00N 48°31' W 122°37'0 0.0
2017-Nov-27 03:30N 48°31' W 122°37'0 0.0
2017-Nov-27 03:01N 48°31' W 122°37'0 0.0
2017-Nov-27 02:30N 48°31' W 122°37'0 0.0
2017-Nov-27 02:00N 48°31' W 122°37'0 0.0
2017-Nov-27 01:30N 48°31' W 122°37'1 2.8
2017-Nov-27 01:00N 48°31' W 122°39'4 7.9
2017-Nov-27 00:30N 48°35' W 122°40'4 8.3
2017-Nov-27 00:00N 48°39' W 122°40'4 8.8
2017-Nov-26 23:31N 48°43' W 122°44'4 8.6
2017-Nov-26 23:00N 48°47' W 122°44'3 1.7
2017-Nov-26 21:20N 48°50' W 122°46'5 0.5
2017-Nov-26 11:47N 48°45' W 122°43'0 0.0
2017-Nov-25 22:39N 48°45' W 122°43'1 8.1
2017-Nov-25 22:30N 48°46' W 122°44'5 3.3
2017-Nov-25 21:01N 48°51' W 122°45'0 2.0
2017-Nov-25 20:55N 48°51' W 122°45'4 6.1
2017-Nov-25 20:12N 48°47' W 122°46'311.8
2017-Nov-25 19:55N 48°43' W 122°44'511.6
2017-Nov-25 19:30N 48°39' W 122°44'611.4
2017-Nov-25 19:00N 48°33' W 122°45'611.8
2017-Nov-25 18:30N 48°27' W 122°45'4 8.6
2017-Nov-25 18:00N 48°24' W 122°49'1114.0
2017-Nov-25 17:13N 48°18' W 123°03'3 5.4
2017-Nov-25 16:45N 48°16' W 123°06'1 2.2
2017-Nov-25 16:30N 48°17' W 123°06'4 6.8
2017-Nov-25 15:52N 48°20' W 123°01'3 7.6
2017-Nov-25 15:30N 48°21' W 122°57'4 7.7
2017-Nov-25 15:01N 48°23' W 122°52'4 7.6
2017-Nov-25 14:29N 48°25' W 122°48'3 7.5
2017-Nov-25 14:01N 48°28' W 122°45'3 7.0
2017-Nov-25 13:31N 48°31' W 122°42'3 6.6
2017-Nov-25 13:00N 48°31' W 122°37'0 0.1
2017-Nov-25 12:31N 48°31' W 122°37'0 0.0
2017-Nov-25 12:01N 48°31' W 122°37'0 0.0
2017-Nov-25 11:31N 48°31' W 122°37'0 0.0
2017-Nov-25 11:00N 48°31' W 122°37'0 0.0
2017-Nov-25 10:30N 48°31' W 122°37'0 0.0
2017-Nov-25 10:01N 48°31' W 122°37'0 0.0
2017-Nov-25 09:30N 48°31' W 122°37'0 0.0
2017-Nov-25 09:00N 48°31' W 122°37'0 0.0
2017-Nov-25 08:31N 48°31' W 122°37'0 0.0
2017-Nov-25 08:01N 48°31' W 122°37'0 0.0
2017-Nov-25 07:31N 48°31' W 122°37'0 0.0
2017-Nov-25 07:00N 48°31' W 122°37'0 0.0
2017-Nov-25 06:31N 48°31' W 122°37'2 4.1
2017-Nov-25 06:00N 48°33' W 122°34'4 7.5
2017-Nov-25 05:30N 48°36' W 122°36'4 8.0
2017-Nov-25 05:00N 48°39' W 122°40'4 8.0
2017-Nov-25 04:30N 48°43' W 122°43'4 7.7
2017-Nov-25 04:00N 48°46' W 122°45'4 7.4
2017-Nov-25 03:31N 48°50' W 122°46'1 0.7
2017-Nov-25 02:11N 48°50' W 122°45'2 8.4
2017-Nov-25 01:59N 48°49' W 122°44'0 0.0
2017-Nov-24 16:41N 48°48' W 122°43'0 0.0
2017-Nov-24 08:38N 48°48' W 122°43'0 0.1
2017-Nov-24 08:20N 48°48' W 122°43'3 8.0
2017-Nov-24 08:01N 48°51' W 122°45'1 1.8
2017-Nov-24 07:20N 48°52' W 122°46'1 3.0
2017-Nov-24 06:59N 48°51' W 122°45'3 4.3
2017-Nov-24 06:13N 48°47' W 122°45'4 7.9
2017-Nov-24 05:45N 48°44' W 122°44'2 6.8
2017-Nov-24 05:30N 48°42' W 122°43'4 7.4
2017-Nov-24 05:01N 48°39' W 122°40'4 8.2
2017-Nov-24 04:30N 48°36' W 122°36'4 7.7
2017-Nov-24 04:00N 48°32' W 122°34'2 4.5
2017-Nov-24 03:30N 48°31' W 122°37'0 0.0
2017-Nov-24 03:00N 48°31' W 122°37'0 0.0
2017-Nov-24 02:30N 48°31' W 122°37'0 0.0
2017-Nov-24 02:00N 48°31' W 122°37'0 0.0
2017-Nov-24 01:30N 48°31' W 122°37'0 0.0
2017-Nov-24 01:01N 48°31' W 122°37'0 0.0
2017-Nov-24 00:31N 48°31' W 122°37'0 0.0
2017-Nov-24 00:01N 48°31' W 122°37'0 0.0
2017-Nov-23 23:31N 48°31' W 122°37'0 0.0
2017-Nov-23 23:01N 48°31' W 122°37'0 0.0
2017-Nov-23 22:30N 48°31' W 122°37'0 0.0
2017-Nov-23 22:00N 48°31' W 122°37'0 0.0
2017-Nov-23 21:31N 48°31' W 122°37'0 0.0
2017-Nov-23 21:00N 48°31' W 122°37'0 0.0
2017-Nov-23 20:31N 48°31' W 122°37'0 0.0
2017-Nov-23 20:01N 48°31' W 122°37'0 0.0
2017-Nov-23 19:31N 48°31' W 122°37'0 0.0
2017-Nov-23 19:00N 48°31' W 122°37'0 0.0
2017-Nov-23 18:30N 48°31' W 122°37'0 0.0
2017-Nov-23 18:00N 48°31' W 122°37'0 0.0
2017-Nov-23 17:30N 48°31' W 122°37'0 0.0
2017-Nov-23 17:00N 48°31' W 122°37'2 3.2
2017-Nov-23 16:31N 48°31' W 122°35'0 0.0
2017-Nov-23 16:01N 48°31' W 122°35'1 1.9
2017-Nov-23 15:30N 48°31' W 122°34'1 1.2
2017-Nov-23 15:00N 48°31' W 122°35'1 2.3
2017-Nov-23 14:31N 48°31' W 122°37'0 0.0
2017-Nov-23 14:00N 48°31' W 122°37'0 0.0
2017-Nov-23 13:30N 48°31' W 122°37'0 0.0
2017-Nov-23 13:00N 48°31' W 122°37'0 0.0
2017-Nov-23 12:31N 48°31' W 122°37'1 1.4
2017-Nov-23 12:00N 48°31' W 122°36'1 2.1
2017-Nov-23 11:31N 48°31' W 122°35'0 0.6
2017-Nov-23 11:00N 48°31' W 122°35'1 2.5
2017-Nov-23 10:30N 48°31' W 122°37'0 0.0
2017-Nov-23 10:00N 48°31' W 122°37'0 0.0
2017-Nov-23 09:31N 48°31' W 122°37'0 0.0
2017-Nov-23 09:01N 48°31' W 122°37'0 0.0
2017-Nov-23 08:30N 48°31' W 122°37'0 0.0
2017-Nov-23 08:00N 48°31' W 122°37'0 0.0
2017-Nov-23 07:31N 48°31' W 122°37'0 0.0
2017-Nov-23 07:00N 48°31' W 122°37'0 0.0
2017-Nov-23 06:30N 48°31' W 122°37'0 0.0
2017-Nov-23 06:00N 48°31' W 122°37'0 0.0
2017-Nov-23 05:30N 48°31' W 122°37'0 0.0
2017-Nov-23 05:01N 48°31' W 122°37'0 0.0
2017-Nov-23 04:30N 48°31' W 122°37'0 0.0
2017-Nov-23 04:00N 48°31' W 122°37'0 0.0
2017-Nov-23 03:30N 48°31' W 122°37'0 0.0
2017-Nov-23 03:00N 48°31' W 122°37'0 0.0
2017-Nov-23 02:30N 48°31' W 122°37'0 0.0
2017-Nov-23 02:00N 48°31' W 122°37'0 0.0
2017-Nov-23 01:31N 48°31' W 122°37'0 0.7
2017-Nov-23 01:00N 48°31' W 122°36'0 0.2
2017-Nov-23 00:30N 48°31' W 122°36'0 0.2
2017-Nov-23 00:00N 48°31' W 122°37'0 0.0
2017-Nov-22 23:30N 48°31' W 122°37'0 0.0
2017-Nov-22 23:00N 48°31' W 122°37'0 0.0
2017-Nov-22 22:31N 48°31' W 122°37'0 0.0
2017-Nov-22 22:00N 48°31' W 122°37'0 0.0
2017-Nov-22 21:31N 48°31' W 122°37'0 0.0
2017-Nov-22 21:01N 48°31' W 122°37'0 0.0
2017-Nov-22 20:31N 48°31' W 122°37'0 0.0
2017-Nov-22 20:00N 48°31' W 122°37'0 0.0
2017-Nov-22 19:30N 48°31' W 122°37'  
2017-Nov-20 00:31N 48°31' W 122°37'0 0.0
2017-Nov-20 00:01N 48°31' W 122°37'0 0.0
2017-Nov-19 23:30N 48°31' W 122°37'0 0.0
2017-Nov-19 23:01N 48°31' W 122°37'0 0.0
2017-Nov-19 22:30N 48°31' W 122°37'0 0.0
2017-Nov-19 22:00N 48°31' W 122°37'0 0.0
2017-Nov-19 21:30N 48°31' W 122°37'0 0.0
2017-Nov-19 21:01N 48°31' W 122°37'0 0.0
2017-Nov-19 20:31N 48°31' W 122°37'0 0.0
2017-Nov-19 20:00N 48°31' W 122°37'0 0.0
2017-Nov-19 19:30N 48°31' W 122°37'0 0.0
2017-Nov-19 19:01N 48°31' W 122°37'0 0.0
2017-Nov-19 18:31N 48°31' W 122°37'0 0.0
2017-Nov-19 18:00N 48°31' W 122°37'0 0.0
2017-Nov-19 17:30N 48°31' W 122°37'0 0.0
2017-Nov-19 17:00N 48°31' W 122°37'0 0.0
2017-Nov-19 16:30N 48°31' W 122°37'0 0.0
2017-Nov-19 16:00N 48°31' W 122°37'0 0.0
2017-Nov-19 15:30N 48°31' W 122°37'0 0.0
2017-Nov-19 15:00N 48°31' W 122°37'0 0.0
2017-Nov-19 14:30N 48°31' W 122°37'2 4.0
2017-Nov-19 14:00N 48°30' W 122°34'0 0.0
2017-Nov-19 13:30N 48°30' W 122°34'0 0.6
2017-Nov-19 13:00N 48°31' W 122°35'2 3.2
2017-Nov-19 12:30N 48°32' W 122°36'1 1.1
2017-Nov-19 12:01N 48°31' W 122°37'0 1.0
2017-Nov-19 11:31N 48°31' W 122°37'0 0.0
2017-Nov-19 11:00N 48°31' W 122°37'0 0.0
2017-Nov-19 10:31N 48°31' W 122°37'0 0.0
2017-Nov-19 10:00N 48°31' W 122°37'0 0.0
2017-Nov-19 09:31N 48°31' W 122°37'0 0.0
2017-Nov-19 09:00N 48°31' W 122°37'0 0.0
2017-Nov-19 08:30N 48°31' W 122°37'0 0.0
2017-Nov-19 08:01N 48°31' W 122°37'0 0.0
2017-Nov-19 07:30N 48°31' W 122°37'0 0.0
2017-Nov-19 07:01N 48°31' W 122°37'0 0.0
2017-Nov-19 06:30N 48°31' W 122°37'0 0.0
2017-Nov-19 06:01N 48°31' W 122°37'0 0.0
2017-Nov-19 05:31N 48°31' W 122°37'0 0.0
2017-Nov-19 05:01N 48°31' W 122°37'0 0.0
2017-Nov-19 04:30N 48°31' W 122°37'0 0.0
2017-Nov-19 04:00N 48°31' W 122°37'0 0.0
2017-Nov-19 03:31N 48°31' W 122°37'0 0.0
2017-Nov-19 03:00N 48°31' W 122°37'0 0.0
2017-Nov-19 02:31N 48°31' W 122°37'1 1.3
2017-Nov-19 02:00N 48°32' W 122°36'4 7.4
2017-Nov-19 01:30N 48°35' W 122°35'4 8.6
2017-Nov-19 01:00N 48°39' W 122°34'4 8.7
2017-Nov-19 00:31N 48°44' W 122°32'1 1.7
2017-Nov-19 00:00N 48°44' W 122°32'0 0.6
2017-Nov-18 23:31N 48°45' W 122°32'1 2.2
2017-Nov-18 23:00N 48°45' W 122°31'0 0.1
2017-Nov-18 22:30N 48°45' W 122°31'4 7.4
2017-Nov-18 22:00N 48°42' W 122°33'4 8.2
2017-Nov-18 21:31N 48°38' W 122°34'4 7.5
2017-Nov-18 21:01N 48°35' W 122°37'0 0.1
2017-Nov-18 20:30N 48°35' W 122°37'0 0.1
2017-Nov-18 20:00N 48°35' W 122°38'0 0.0
2017-Nov-18 19:30N 48°35' W 122°38'0 0.0
2017-Nov-18 19:00N 48°35' W 122°38'0 0.1
2017-Nov-18 18:30N 48°35' W 122°37'0 0.1
2017-Nov-18 18:00N 48°35' W 122°38'1 1.8
2017-Nov-18 17:30N 48°36' W 122°37'4 8.7
2017-Nov-18 17:00N 48°39' W 122°40'4 8.7
2017-Nov-18 16:31N 48°43' W 122°44'5 9.2
2017-Nov-18 16:00N 48°48' W 122°44'4 7.1
2017-Nov-18 15:27N 48°52' W 122°46'0 0.2
2017-Nov-18 14:52N 48°52' W 122°46'0 0.4
2017-Nov-18 14:10N 48°52' W 122°46'0 0.2
2017-Nov-18 14:00N 48°52' W 122°46'0 0.0
2017-Nov-18 13:30N 48°52' W 122°46'0 0.3
2017-Nov-18 13:00N 48°52' W 122°46'2 3.1
2017-Nov-18 12:25N 48°50' W 122°47'3 4.0
2017-Nov-18 11:48N 48°48' W 122°44'1 1.2
2017-Nov-18 11:23N 48°48' W 122°43'0 0.0
2017-Nov-18 10:58N 48°48' W 122°43'0 0.0
2017-Nov-18 10:27N 48°48' W 122°43'0 0.0
2017-Nov-18 09:58N 48°48' W 122°43'0 0.0
2017-Nov-18 09:24N 48°48' W 122°43'0 0.0
2017-Nov-18 08:55N 48°48' W 122°43'0 0.1
2017-Nov-18 08:31N 48°48' W 122°43'0 0.0
2017-Nov-18 08:00N 48°48' W 122°43'0 0.0
2017-Nov-18 06:45N 48°48' W 122°43'0 0.1
2017-Nov-18 06:25N 48°48' W 122°43'0 0.1
2017-Nov-18 06:00N 48°48' W 122°43'0 0.0
2017-Nov-18 05:31N 48°48' W 122°43'1 1.7
2017-Nov-18 05:01N 48°49' W 122°44'3 6.1
2017-Nov-18 04:28N 48°52' W 122°46'0 0.1
2017-Nov-18 03:45N 48°52' W 122°46'0 0.2
2017-Nov-18 03:15N 48°52' W 122°46'0 1.2
2017-Nov-18 02:59N 48°52' W 122°46'0 0.0
2017-Nov-18 02:17N 48°52' W 122°46'1 0.3
2017-Nov-18 00:25N 48°52' W 122°46'1 1.4
2017-Nov-18 00:00N 48°51' W 122°46'1 0.6
2017-Nov-17 22:11N 48°52' W 122°46'0 0.0
2017-Nov-17 21:33N 48°52' W 122°46'0 0.0
2017-Nov-17 19:36N 48°52' W 122°46'0 0.0
2017-Nov-17 19:30N 48°52' W 122°46'0 0.0
2017-Nov-17 18:48N 48°52' W 122°46'  

Dump ship's entire track history